createdAt,value
2022-09-06T00:01:23.278Z,2.53
2022-09-06T00:03:50.477Z,2.70
2022-09-06T00:06:19.565Z,2.60
2022-09-06T00:08:47.654Z,2.50
2022-09-06T00:11:15.515Z,2.63
2022-09-06T00:13:42.584Z,2.67
2022-09-06T00:16:12.832Z,2.90
2022-09-06T00:21:21.474Z,2.53
2022-09-06T00:23:48.420Z,2.70
2022-09-06T00:26:15.651Z,3.40
2022-09-06T00:28:42.577Z,2.45
2022-09-06T00:31:16.732Z,2.75
2022-09-06T00:33:43.643Z,2.78
2022-09-06T00:36:11.785Z,2.78
2022-09-06T00:38:39.226Z,2.67
2022-09-06T00:41:08.210Z,3.45
2022-09-06T00:43:34.891Z,2.67
2022-09-06T00:46:03.198Z,2.50
2022-09-06T00:48:30.467Z,2.80
2022-09-06T00:51:00.840Z,2.80
2022-09-06T00:55:55.393Z,2.38
2022-09-06T00:58:22.643Z,2.85
2022-09-06T01:00:49.439Z,2.60
2022-09-06T01:03:16.276Z,2.78
2022-09-06T01:06:09.036Z,2.60
2022-09-06T01:09:06.625Z,3.13
2022-09-06T01:11:55.773Z,2.83
2022-09-06T01:15:03.287Z,2.63
2022-09-06T01:18:03.947Z,2.38
2022-09-06T01:20:42.501Z,2.25
2022-09-06T01:23:30.908Z,2.40
2022-09-06T01:26:30.748Z,2.47
2022-09-06T01:28:58.564Z,2.15
2022-09-06T01:31:44.505Z,2.42
2022-09-06T01:34:35.091Z,2.45
2022-09-06T01:37:17.546Z,2.47
2022-09-06T01:39:44.239Z,2.28
2022-09-06T01:42:20.054Z,2.38
2022-09-06T01:44:52.514Z,2.53
2022-09-06T01:48:03.625Z,2.13
2022-09-06T01:50:53.610Z,3.38
2022-09-06T01:53:34.946Z,3.08
2022-09-06T01:56:40.722Z,2.30
2022-09-06T01:59:13.277Z,2.33
2022-09-06T02:02:11.610Z,2.70
2022-09-06T02:04:54.064Z,3.00
2022-09-06T02:07:25.042Z,2.63
2022-09-06T02:09:59.012Z,2.20
2022-09-06T02:12:28.372Z,2.65
2022-09-06T02:15:09.112Z,2.65
2022-09-06T02:17:41.304Z,2.20
2022-09-06T02:20:17.121Z,2.55
2022-09-06T02:22:46.972Z,2.22
2022-09-06T02:25:21.333Z,2.38
2022-09-06T02:27:48.156Z,2.33
2022-09-06T02:30:14.929Z,2.78
2022-09-06T02:32:57.242Z,2.42
2022-09-06T02:35:24.439Z,2.20
2022-09-06T02:37:52.109Z,2.53
2022-09-06T02:40:19.329Z,2.38
2022-09-06T02:42:45.980Z,2.58
2022-09-06T02:45:13.093Z,2.45
2022-09-06T02:47:39.834Z,2.72
2022-09-06T02:50:08.221Z,2.95
2022-09-06T02:52:34.875Z,2.50
2022-09-06T02:55:01.529Z,3.03
2022-09-06T02:57:28.174Z,2.50
2022-09-06T02:59:54.831Z,2.85
2022-09-06T03:02:21.512Z,3.08
2022-09-06T03:04:48.210Z,2.20
2022-09-06T03:07:14.841Z,2.90
2022-09-06T03:09:41.678Z,2.38
2022-09-06T03:12:08.633Z,2.33
2022-09-06T03:14:36.134Z,2.55
2022-09-06T03:17:03.824Z,2.08
2022-09-06T03:19:30.537Z,2.35
2022-09-06T03:21:57.165Z,2.85
2022-09-06T03:24:23.872Z,2.35
2022-09-06T03:26:50.865Z,2.60
2022-09-06T03:29:17.617Z,3.05
2022-09-06T03:31:44.252Z,2.42
2022-09-06T03:34:11.306Z,2.80
2022-09-06T03:36:38.238Z,2.97
2022-09-06T03:39:04.909Z,2.63
2022-09-06T03:41:31.531Z,2.50
2022-09-06T03:43:58.191Z,3.22
2022-09-06T03:46:24.892Z,3.15
2022-09-06T03:48:51.560Z,2.58
2022-09-06T03:51:18.313Z,2.63
2022-09-06T03:53:45.079Z,2.63
2022-09-06T03:56:11.880Z,2.30
2022-09-06T03:58:38.513Z,2.88
2022-09-06T04:01:08.461Z,3.05
2022-09-06T04:03:35.984Z,2.33
2022-09-06T04:06:03.269Z,3.45
2022-09-06T04:08:30.295Z,3.38
2022-09-06T04:10:58.344Z,2.58
2022-09-06T04:13:26.221Z,2.80
2022-09-06T04:15:53.066Z,2.97
2022-09-06T04:18:20.588Z,2.92
2022-09-06T04:20:55.923Z,3.45
2022-09-06T04:23:24.063Z,3.42
2022-09-06T04:25:53.398Z,2.75
2022-09-06T04:28:21.330Z,2.65
2022-09-06T04:30:58.143Z,2.50
2022-09-06T04:33:28.511Z,2.93
2022-09-06T04:35:57.686Z,2.33
2022-09-06T04:38:25.411Z,2.78
2022-09-06T04:40:52.220Z,2.78
2022-09-06T04:43:18.870Z,2.70
2022-09-06T04:45:45.739Z,3.03
2022-09-06T04:48:12.610Z,2.40
2022-09-06T04:50:39.281Z,2.92
2022-09-06T04:53:06.293Z,3.05
2022-09-06T04:55:34.243Z,2.35
2022-09-06T04:58:01.462Z,2.80
2022-09-06T05:00:28.600Z,3.53
2022-09-06T05:02:55.343Z,2.75
2022-09-06T05:05:24.863Z,3.30
2022-09-06T05:07:55.307Z,3.05
2022-09-06T05:10:23.184Z,3.15
2022-09-06T05:12:51.046Z,2.67
2022-09-06T05:15:18.547Z,3.55
2022-09-06T05:17:45.242Z,3.00
2022-09-06T05:20:12.800Z,3.03
2022-09-06T05:22:40.424Z,3.10
2022-09-06T05:25:08.610Z,3.17
2022-09-06T05:27:35.595Z,4.07
2022-09-06T05:30:04.100Z,3.90
2022-09-06T05:32:30.778Z,3.17
2022-09-06T05:34:57.426Z,2.78
2022-09-06T05:37:24.240Z,3.08
2022-09-06T05:39:51.011Z,2.90
2022-09-06T05:42:19.408Z,2.70
2022-09-06T05:44:46.280Z,2.92
2022-09-06T05:47:13.513Z,3.00
2022-09-06T05:49:40.264Z,2.72
2022-09-06T05:52:06.923Z,3.10
2022-09-06T05:54:33.646Z,2.83
2022-09-06T05:57:00.323Z,3.85
2022-09-06T05:59:26.968Z,3.35
2022-09-06T06:01:54.238Z,2.97
2022-09-06T06:04:22.297Z,2.72
2022-09-06T06:06:49.344Z,3.70
2022-09-06T06:09:17.427Z,3.17
2022-09-06T06:11:44.322Z,3.53
2022-09-06T06:14:11.328Z,4.25
2022-09-06T06:16:38.528Z,4.28
2022-09-06T06:19:05.496Z,3.88
2022-09-06T06:21:33.474Z,4.72
2022-09-06T06:24:02.634Z,4.65
2022-09-06T06:26:32.922Z,3.67
2022-09-06T06:31:30.147Z,3.65
2022-09-06T06:33:57.019Z,3.42
2022-09-06T06:36:25.243Z,4.22
2022-09-06T06:38:55.211Z,3.72
2022-09-06T06:41:24.544Z,4.10
2022-09-06T06:43:55.484Z,3.58
2022-09-06T06:46:24.970Z,3.50
2022-09-06T06:48:54.874Z,3.83
2022-09-06T06:53:49.944Z,3.85
2022-09-06T06:56:19.198Z,3.78
2022-09-06T06:58:48.720Z,4.05
2022-09-06T07:01:16.688Z,4.13
2022-09-06T07:03:43.761Z,3.25
2022-09-06T07:06:10.790Z,4.03
2022-09-06T07:08:38.225Z,3.15
2022-09-06T07:11:06.844Z,3.50
2022-09-06T07:13:37.153Z,3.10
2022-09-06T07:18:35.086Z,3.40
2022-09-06T07:26:36.380Z,4.10
2022-09-06T07:29:04.861Z,5.20
2022-09-06T07:34:19.262Z,4.78
2022-09-06T07:36:45.979Z,4.20
2022-09-06T07:39:12.762Z,4.30
2022-09-06T07:41:39.525Z,4.40
2022-09-06T07:44:06.207Z,4.47
2022-09-06T07:46:33.079Z,5.38
2022-09-06T07:48:59.772Z,4.20
2022-09-06T07:51:26.472Z,4.40
2022-09-06T07:54:07.442Z,4.40
2022-09-06T07:56:40.180Z,5.00
2022-09-06T07:59:06.828Z,4.47
2022-09-06T08:01:34.722Z,4.90
2022-09-06T08:04:06.362Z,4.15
2022-09-06T08:09:22.485Z,3.20
2022-09-06T08:11:51.026Z,3.38
2022-09-06T08:14:17.778Z,3.22
2022-09-06T08:16:44.512Z,3.03
2022-09-06T08:19:12.443Z,3.13
2022-09-06T08:21:39.415Z,3.33
2022-09-06T08:24:08.175Z,3.08
2022-09-06T08:26:39.265Z,4.13
2022-09-06T08:29:08.678Z,3.15
2022-09-06T08:31:38.661Z,3.58
2022-09-06T08:34:06.144Z,2.85
2022-09-06T08:36:33.858Z,2.75
2022-09-06T08:39:02.380Z,3.22
2022-09-06T08:42:06.728Z,2.95
2022-09-06T08:44:57.190Z,3.17
2022-09-06T08:47:24.950Z,2.80
2022-09-06T08:50:00.814Z,2.83
2022-09-06T08:52:54.398Z,2.72
2022-09-06T08:55:59.080Z,2.50
2022-09-06T08:58:44.429Z,2.92
2022-09-06T09:01:25.242Z,2.55
2022-09-06T09:03:54.313Z,2.53
2022-09-06T09:06:23.296Z,2.70
2022-09-06T09:08:59.155Z,2.53
2022-09-06T09:11:26.007Z,2.90
2022-09-06T09:14:07.953Z,2.47
2022-09-06T09:16:34.892Z,2.47
2022-09-06T09:19:06.018Z,2.30
2022-09-06T09:21:38.452Z,2.22
2022-09-06T09:24:07.749Z,2.05
2022-09-06T09:26:49.440Z,1.77
2022-09-06T09:29:17.097Z,2.50
2022-09-06T09:31:53.332Z,2.35
2022-09-06T09:34:38.105Z,1.83
2022-09-06T09:40:17.520Z,1.83
2022-09-06T09:42:44.679Z,2.05
2022-09-06T09:45:20.304Z,1.80
2022-09-06T09:47:47.411Z,2.78
2022-09-06T09:50:25.692Z,2.53
2022-09-06T09:52:52.375Z,2.22
2022-09-06T09:55:26.360Z,2.00
2022-09-06T09:57:54.248Z,2.53
2022-09-06T10:00:36.375Z,2.85
2022-09-06T10:03:13.440Z,3.03
2022-09-06T10:05:41.300Z,2.25
2022-09-06T10:08:12.350Z,2.40
2022-09-06T10:10:43.170Z,2.55
2022-09-06T10:13:31.496Z,3.03
2022-09-06T10:16:00.542Z,2.70
2022-09-06T10:18:36.269Z,2.40
2022-09-06T10:21:09.812Z,2.80
2022-09-06T10:26:46.035Z,2.10
2022-09-06T10:29:14.420Z,2.33
2022-09-06T10:31:59.445Z,2.80
2022-09-06T10:34:48.113Z,3.20
2022-09-06T10:37:42.102Z,3.40
2022-09-06T10:40:11.780Z,2.33
2022-09-06T10:42:50.593Z,2.72
2022-09-06T10:45:27.393Z,3.35
2022-09-06T10:48:02.991Z,3.45
2022-09-06T10:50:35.895Z,2.78
2022-09-06T10:53:27.385Z,2.63
2022-09-06T10:56:04.831Z,2.67
2022-09-06T11:01:39.017Z,2.42
2022-09-06T11:04:13.135Z,2.95
2022-09-06T11:06:47.897Z,2.88
2022-09-06T11:09:31.106Z,2.80
2022-09-06T11:12:37.416Z,2.30
2022-09-06T11:15:06.235Z,3.10
2022-09-06T11:17:49.077Z,3.08
2022-09-06T11:20:46.033Z,2.35
2022-09-06T11:23:34.739Z,2.55
2022-09-06T11:26:36.734Z,2.75
2022-09-06T11:29:09.162Z,3.20
2022-09-06T11:32:19.814Z,3.33
2022-09-06T11:34:55.861Z,2.35
2022-09-06T11:37:30.949Z,2.15
2022-09-06T11:40:27.586Z,2.20
2022-09-06T11:42:55.178Z,2.00
2022-09-06T11:45:46.156Z,2.40
2022-09-06T11:48:33.864Z,2.33
2022-09-06T11:51:13.097Z,2.40
2022-09-06T11:54:06.170Z,2.53
2022-09-06T11:56:42.264Z,2.88
2022-09-06T11:59:21.869Z,2.17
2022-09-06T12:02:26.642Z,3.25
2022-09-06T12:05:00.463Z,2.85
2022-09-06T12:07:29.149Z,2.90
2022-09-06T12:09:56.148Z,2.78
2022-09-06T12:12:40.872Z,2.83
2022-09-06T12:15:31.079Z,3.25
2022-09-06T12:20:47.987Z,2.20
2022-09-06T12:23:35.938Z,2.38
2022-09-06T12:26:10.737Z,2.00
2022-09-06T12:28:51.412Z,2.47
2022-09-06T12:31:33.030Z,2.53
2022-09-06T12:34:19.361Z,1.90
2022-09-06T12:36:53.422Z,2.10
2022-09-06T12:39:21.435Z,1.98
2022-09-06T12:41:57.253Z,2.00
2022-09-06T12:44:34.288Z,2.42
2022-09-06T12:47:12.228Z,1.85
2022-09-06T12:49:38.940Z,2.45
2022-09-06T12:52:12.199Z,1.55
2022-09-06T12:54:57.145Z,1.95
2022-09-06T12:57:26.389Z,2.20
2022-09-06T12:59:57.528Z,1.97
2022-09-06T13:02:31.906Z,2.17
2022-09-06T13:05:11.705Z,2.25
2022-09-06T13:07:45.282Z,2.35
2022-09-06T13:10:17.051Z,2.17
2022-09-06T13:12:46.099Z,3.70
2022-09-06T13:15:22.309Z,1.75
2022-09-06T13:17:49.064Z,2.20
2022-09-06T13:20:29.211Z,2.10
2022-09-06T13:23:10.735Z,2.03
2022-09-06T13:25:56.242Z,2.40
2022-09-06T13:28:29.589Z,2.10
2022-09-06T13:31:20.428Z,2.65
2022-09-06T13:33:57.288Z,2.20
2022-09-06T13:36:30.976Z,2.45
2022-09-06T13:38:59.879Z,3.92
2022-09-06T13:41:26.485Z,1.83
2022-09-06T13:44:05.992Z,2.35
2022-09-06T13:46:33.363Z,2.70
2022-09-06T13:49:00.373Z,2.25
2022-09-06T13:51:27.050Z,2.28
2022-09-06T13:54:08.053Z,1.55
2022-09-06T13:56:35.447Z,2.40
2022-09-06T13:59:03.249Z,2.33
2022-09-06T14:01:31.995Z,1.95
2022-09-06T14:03:59.154Z,2.40
2022-09-06T14:06:25.898Z,1.52
2022-09-06T14:09:08.636Z,2.53
2022-09-06T14:11:36.543Z,1.88
2022-09-06T14:14:03.686Z,1.98
2022-09-06T14:16:30.509Z,1.90
2022-09-06T14:18:57.478Z,2.42
2022-09-06T14:21:24.244Z,2.28
2022-09-06T14:23:52.174Z,2.72
2022-09-06T14:26:20.910Z,1.90
2022-09-06T14:28:48.050Z,2.17
2022-09-06T14:31:17.878Z,1.70
2022-09-06T14:33:45.061Z,2.25
2022-09-06T14:36:14.232Z,2.08
2022-09-06T14:38:42.717Z,2.23
2022-09-06T14:41:10.010Z,2.10
2022-09-06T14:43:37.272Z,2.08
2022-09-06T14:46:12.723Z,2.30
2022-09-06T14:48:42.221Z,1.92
2022-09-06T14:51:20.763Z,2.10
2022-09-06T14:53:49.248Z,1.85
2022-09-06T14:56:16.014Z,1.60
2022-09-06T14:58:43.331Z,1.85
2022-09-06T15:01:15.099Z,1.80
2022-09-06T15:03:48.525Z,2.00
2022-09-06T15:06:16.184Z,2.25
2022-09-06T15:08:43.134Z,1.88
2022-09-06T15:11:10.663Z,4.90
2022-09-06T15:13:38.751Z,1.33
2022-09-06T15:16:06.790Z,1.10
2022-09-06T15:18:34.535Z,1.10
2022-09-06T15:21:12.186Z,0.80
2022-09-06T15:23:39.671Z,1.48
2022-09-06T15:26:08.307Z,1.50
2022-09-06T15:28:40.020Z,1.30
2022-09-06T15:31:08.256Z,1.30
2022-09-06T15:33:36.695Z,1.25
2022-09-06T15:36:07.895Z,1.15
2022-09-06T15:38:36.734Z,1.20
2022-09-06T15:41:08.611Z,1.48
2022-09-06T15:43:36.566Z,1.10
2022-09-06T15:46:03.342Z,0.93
2022-09-06T15:48:43.235Z,1.30
2022-09-06T15:51:11.889Z,1.20
2022-09-06T15:53:38.712Z,1.13
2022-09-06T15:56:06.706Z,0.88
2022-09-06T15:58:33.987Z,1.08
2022-09-06T16:01:00.759Z,0.80
2022-09-06T16:03:27.698Z,1.30
2022-09-06T16:08:41.257Z,0.70
2022-09-06T16:11:10.597Z,0.65
2022-09-06T16:13:38.455Z,0.83
2022-09-06T16:16:08.069Z,0.65
2022-09-06T16:18:36.178Z,0.65
2022-09-06T16:21:08.289Z,0.90
2022-09-06T16:23:36.524Z,0.50
2022-09-06T16:26:04.873Z,0.80
2022-09-06T16:28:33.869Z,0.70
2022-09-06T16:31:02.563Z,0.52
2022-09-06T16:33:31.291Z,0.75
2022-09-06T16:36:02.281Z,0.70
2022-09-06T16:38:33.399Z,0.75
2022-09-06T16:41:08.277Z,1.63
2022-09-06T16:43:35.056Z,1.00
2022-09-06T16:46:03.185Z,0.60
2022-09-06T16:48:30.659Z,0.77
2022-09-06T16:50:58.317Z,0.68
2022-09-06T16:53:24.989Z,0.82
2022-09-06T16:55:51.667Z,0.57
2022-09-06T16:58:18.318Z,0.90
2022-09-06T17:00:45.511Z,0.63
2022-09-06T17:03:15.345Z,0.95
2022-09-06T17:05:42.044Z,1.02
2022-09-06T17:08:09.841Z,1.10
2022-09-06T17:10:39.257Z,1.00
2022-09-06T17:13:05.881Z,1.00
2022-09-06T17:15:52.518Z,0.75
2022-09-06T17:18:19.207Z,1.10
2022-09-06T17:21:00.924Z,0.70
2022-09-06T17:23:28.169Z,1.17
2022-09-06T17:25:54.804Z,1.20
2022-09-06T17:28:21.909Z,0.90
2022-09-06T17:30:48.978Z,1.00
2022-09-06T17:33:17.544Z,1.30
2022-09-06T17:35:44.883Z,1.20
2022-09-06T17:38:12.223Z,1.40
2022-09-06T17:40:39.325Z,1.38
2022-09-06T17:43:06.302Z,1.10
2022-09-06T17:45:37.685Z,1.30
2022-09-06T17:48:05.146Z,1.23
2022-09-06T17:50:32.984Z,1.52
2022-09-06T17:53:00.144Z,1.90
2022-09-06T17:55:29.196Z,1.10
2022-09-06T17:57:58.999Z,1.20
2022-09-06T18:00:26.250Z,1.00
2022-09-06T18:02:53.271Z,1.10
2022-09-06T18:05:20.157Z,0.70
2022-09-06T18:07:47.386Z,0.93
2022-09-06T18:10:15.178Z,0.70
2022-09-06T18:12:42.423Z,0.90
2022-09-06T18:15:09.858Z,1.15
2022-09-06T18:17:36.620Z,1.55
2022-09-06T18:20:04.333Z,1.10
2022-09-06T18:22:31.078Z,1.00
2022-09-06T18:24:58.546Z,1.13
2022-09-06T18:27:25.797Z,1.40
2022-09-06T18:29:52.532Z,1.08
2022-09-06T18:32:19.207Z,1.30
2022-09-06T18:34:45.876Z,1.45
2022-09-06T18:37:12.558Z,1.40
2022-09-06T18:39:39.637Z,1.15
2022-09-06T18:42:07.212Z,0.82
2022-09-06T18:44:34.587Z,1.63
2022-09-06T18:47:03.236Z,1.58
2022-09-06T18:49:30.481Z,1.20
2022-09-06T18:51:57.157Z,1.20
2022-09-06T18:54:23.893Z,1.23
2022-09-06T18:56:50.586Z,1.40
2022-09-06T18:59:17.739Z,1.70
2022-09-06T19:01:44.658Z,1.33
2022-09-06T19:04:12.315Z,1.00
2022-09-06T19:06:40.577Z,1.02
2022-09-06T19:09:09.835Z,1.38
2022-09-06T19:11:36.879Z,0.95
2022-09-06T19:14:04.198Z,1.20
2022-09-06T19:16:31.573Z,1.33
2022-09-06T19:19:05.848Z,1.40
2022-09-06T19:21:35.630Z,1.17
2022-09-06T19:24:07.449Z,0.65
2022-09-06T19:26:37.670Z,1.20
2022-09-06T19:29:07.836Z,1.00
2022-09-06T19:31:36.395Z,1.00
2022-09-06T19:34:04.138Z,1.20
2022-09-06T19:36:31.911Z,0.98
2022-09-06T19:39:07.049Z,1.35
2022-09-06T19:41:37.837Z,1.15
2022-09-06T19:44:05.827Z,1.45
2022-09-06T19:46:32.873Z,1.10
2022-09-06T19:49:00.467Z,1.65
2022-09-06T19:51:27.318Z,2.17
2022-09-06T19:53:59.823Z,1.30
2022-09-06T19:56:33.597Z,0.93
2022-09-06T19:59:04.126Z,1.88
2022-09-06T20:01:32.696Z,1.20
2022-09-06T20:04:02.467Z,1.30
2022-09-06T20:06:30.215Z,2.63
2022-09-06T20:08:58.452Z,1.27
2022-09-06T20:11:28.410Z,0.80
2022-09-06T20:13:55.151Z,1.25
2022-09-06T20:16:22.402Z,0.88
2022-09-06T20:18:49.134Z,1.13
2022-09-06T20:21:18.364Z,0.90
2022-09-06T20:23:50.143Z,1.23
2022-09-06T20:26:17.481Z,1.30
2022-09-06T20:28:44.335Z,0.90
2022-09-06T20:31:13.898Z,1.20
2022-09-06T20:33:40.683Z,1.27
2022-09-06T20:36:09.207Z,1.27
2022-09-06T20:38:37.986Z,1.00
2022-09-06T20:41:18.484Z,1.15
2022-09-06T20:43:46.526Z,1.25
2022-09-06T20:46:18.523Z,1.08
2022-09-06T20:48:46.206Z,2.22
2022-09-06T20:51:15.882Z,1.25
2022-09-06T20:53:42.637Z,1.95
2022-09-06T20:56:17.643Z,1.20
2022-09-06T20:58:52.614Z,1.05
2022-09-06T21:01:22.728Z,1.50
2022-09-06T21:06:18.626Z,1.70
2022-09-06T21:08:45.540Z,0.90
2022-09-06T21:11:12.933Z,1.02
2022-09-06T21:13:40.064Z,0.93
2022-09-06T21:16:07.283Z,1.02
2022-09-06T21:18:35.317Z,1.15
2022-09-06T21:21:07.045Z,0.93
2022-09-06T21:23:37.632Z,1.13
2022-09-06T21:26:10.078Z,1.85
2022-09-06T21:28:38.813Z,1.30
2022-09-06T21:31:08.753Z,1.17
2022-09-06T21:33:36.907Z,1.38
2022-09-06T21:36:12.034Z,0.60
2022-09-06T21:38:41.138Z,1.13
2022-09-06T21:41:09.367Z,1.10
2022-09-06T21:43:36.535Z,1.80
2022-09-06T21:46:05.116Z,2.35
2022-09-06T21:48:32.438Z,1.10
2022-09-06T21:50:59.073Z,1.00
2022-09-06T21:53:27.063Z,0.90
2022-09-06T21:56:00.129Z,0.88
2022-09-06T21:58:27.210Z,0.93
2022-09-06T22:00:56.375Z,1.02
2022-09-06T22:03:23.272Z,0.80
2022-09-06T22:05:50.189Z,0.88
2022-09-06T22:08:17.025Z,0.95
2022-09-06T22:10:43.854Z,1.33
2022-09-06T22:13:10.780Z,1.10
2022-09-06T22:15:38.804Z,1.17
2022-09-06T22:18:07.093Z,1.23
2022-09-06T22:20:34.508Z,1.10
2022-09-06T22:23:08.101Z,0.90
2022-09-06T22:25:34.852Z,1.10
2022-09-06T22:28:01.762Z,1.13
2022-09-06T22:30:28.550Z,0.93
2022-09-06T22:32:55.320Z,1.00
2022-09-06T22:35:22.202Z,1.33
2022-09-06T22:37:49.956Z,1.17
2022-09-06T22:40:16.624Z,0.93
2022-09-06T22:42:43.352Z,1.10
2022-09-06T22:45:10.336Z,1.00
2022-09-06T22:47:36.978Z,1.10
2022-09-06T22:50:03.909Z,1.00
2022-09-06T22:52:30.551Z,1.60
2022-09-06T22:54:57.216Z,1.33
2022-09-06T22:57:23.882Z,1.05
2022-09-06T22:59:50.543Z,1.02
2022-09-06T23:02:17.186Z,1.25
2022-09-06T23:04:43.869Z,1.27
2022-09-06T23:07:10.560Z,0.82
2022-09-06T23:09:37.210Z,1.25
2022-09-06T23:12:05.102Z,1.08
2022-09-06T23:14:31.747Z,1.90
2022-09-06T23:16:58.431Z,1.02
2022-09-06T23:19:25.086Z,1.50
2022-09-06T23:21:51.724Z,1.33
2022-09-06T23:24:18.385Z,1.13
2022-09-06T23:26:45.165Z,1.20
2022-09-06T23:29:12.779Z,1.52
2022-09-06T23:31:39.731Z,1.63
2022-09-06T23:34:06.447Z,1.38
2022-09-06T23:36:33.123Z,1.40
2022-09-06T23:39:01.713Z,1.33
2022-09-06T23:41:28.660Z,1.75
2022-09-06T23:43:55.478Z,1.50
2022-09-06T23:46:22.254Z,1.10
2022-09-06T23:48:48.945Z,1.13
2022-09-06T23:51:15.621Z,1.15
2022-09-06T23:53:42.651Z,1.67
2022-09-06T23:56:09.815Z,1.70
2022-09-06T23:58:37.387Z,1.20
